sensor_id;sensor_type;location;lat;lon;timestamp;P1;durP1;ratioP1;P2;durP2;ratioP2
12910;SDS011;6523;49.758;6.120;2022-12-01T00:00:42;26.63;;;14.23;;
12910;SDS011;6523;49.758;6.120;2022-12-01T00:03:08;23.07;;;13.67;;
12910;SDS011;6523;49.758;6.120;2022-12-01T00:05:34;25.10;;;13.77;;
12910;SDS011;6523;49.758;6.120;2022-12-01T00:08:00;25.93;;;13.90;;
12910;SDS011;6523;49.758;6.120;2022-12-01T00:10:26;23.37;;;13.83;;
12910;SDS011;6523;49.758;6.120;2022-12-01T00:12:53;24.73;;;13.03;;
12910;SDS011;6523;49.758;6.120;2022-12-01T00:15:19;25.63;;;13.93;;
12910;SDS011;6523;49.758;6.120;2022-12-01T00:17:45;24.00;;;13.83;;
12910;SDS011;6523;49.758;6.120;2022-12-01T00:20:12;21.83;;;12.93;;
12910;SDS011;6523;49.758;6.120;2022-12-01T00:22:40;23.27;;;12.77;;
12910;SDS011;6523;49.758;6.120;2022-12-01T00:25:07;23.37;;;13.23;;
12910;SDS011;6523;49.758;6.120;2022-12-01T00:27:33;25.03;;;13.83;;
12910;SDS011;6523;49.758;6.120;2022-12-01T00:29:58;23.43;;;13.43;;
12910;SDS011;6523;49.758;6.120;2022-12-01T00:32:24;22.70;;;13.47;;
12910;SDS011;6523;49.758;6.120;2022-12-01T00:34:49;21.93;;;13.03;;
12910;SDS011;6523;49.758;6.120;2022-12-01T00:37:15;23.40;;;12.97;;
12910;SDS011;6523;49.758;6.120;2022-12-01T00:39:40;24.03;;;13.60;;
12910;SDS011;6523;49.758;6.120;2022-12-01T00:42:06;24.90;;;13.53;;
12910;SDS011;6523;49.758;6.120;2022-12-01T00:44:31;21.03;;;13.17;;
12910;SDS011;6523;49.758;6.120;2022-12-01T00:46:57;24.97;;;12.63;;
12910;SDS011;6523;49.758;6.120;2022-12-01T00:49:22;22.70;;;12.50;;
12910;SDS011;6523;49.758;6.120;2022-12-01T00:51:48;23.90;;;13.47;;
12910;SDS011;6523;49.758;6.120;2022-12-01T00:54:13;23.33;;;13.20;;
12910;SDS011;6523;49.758;6.120;2022-12-01T00:56:39;22.73;;;13.23;;
12910;SDS011;6523;49.758;6.120;2022-12-01T00:59:05;22.43;;;12.93;;
12910;SDS011;6523;49.758;6.120;2022-12-01T01:01:30;21.33;;;13.27;;
12910;SDS011;6523;49.758;6.120;2022-12-01T01:03:56;20.63;;;12.80;;
12910;SDS011;6523;49.758;6.120;2022-12-01T01:06:22;24.90;;;13.47;;
12910;SDS011;6523;49.758;6.120;2022-12-01T01:08:48;20.70;;;12.83;;
12910;SDS011;6523;49.758;6.120;2022-12-01T01:11:13;21.80;;;12.30;;
12910;SDS011;6523;49.758;6.120;2022-12-01T01:13:39;20.53;;;12.27;;
12910;SDS011;6523;49.758;6.120;2022-12-01T01:16:06;20.63;;;12.27;;
12910;SDS011;6523;49.758;6.120;2022-12-01T01:18:37;23.63;;;12.93;;
12910;SDS011;6523;49.758;6.120;2022-12-01T01:21:04;19.87;;;12.33;;
12910;SDS011;6523;49.758;6.120;2022-12-01T01:23:32;23.13;;;12.73;;
12910;SDS011;6523;49.758;6.120;2022-12-01T01:26:02;22.63;;;13.10;;
12910;SDS011;6523;49.758;6.120;2022-12-01T01:28:32;21.87;;;12.93;;
12910;SDS011;6523;49.758;6.120;2022-12-01T01:30:58;23.83;;;12.90;;
12910;SDS011;6523;49.758;6.120;2022-12-01T01:33:24;23.17;;;12.80;;
12910;SDS011;6523;49.758;6.120;2022-12-01T01:35:50;23.90;;;12.80;;
12910;SDS011;6523;49.758;6.120;2022-12-01T01:38:15;21.00;;;12.60;;
12910;SDS011;6523;49.758;6.120;2022-12-01T01:40:42;22.50;;;13.93;;
12910;SDS011;6523;49.758;6.120;2022-12-01T01:43:12;25.73;;;12.83;;
12910;SDS011;6523;49.758;6.120;2022-12-01T01:45:40;20.57;;;12.13;;
12910;SDS011;6523;49.758;6.120;2022-12-01T01:48:06;24.30;;;12.77;;
12910;SDS011;6523;49.758;6.120;2022-12-01T01:50:32;20.40;;;12.17;;
12910;SDS011;6523;49.758;6.120;2022-12-01T01:52:59;19.63;;;12.17;;
12910;SDS011;6523;49.758;6.120;2022-12-01T01:55:29;19.73;;;11.97;;
12910;SDS011;6523;49.758;6.120;2022-12-01T01:57:57;22.53;;;12.43;;
12910;SDS011;6523;49.758;6.120;2022-12-01T02:00:24;22.17;;;12.57;;
12910;SDS011;6523;49.758;6.120;2022-12-01T02:02:49;19.70;;;11.50;;
12910;SDS011;6523;49.758;6.120;2022-12-01T02:05:21;20.50;;;12.53;;
12910;SDS011;6523;49.758;6.120;2022-12-01T02:07:49;21.37;;;12.23;;
12910;SDS011;6523;49.758;6.120;2022-12-01T02:10:17;20.43;;;11.97;;
12910;SDS011;6523;49.758;6.120;2022-12-01T02:13:10;19.77;;;11.33;;
12910;SDS011;6523;49.758;6.120;2022-12-01T02:21:20;20.93;;;12.83;;
12910;SDS011;6523;49.758;6.120;2022-12-01T02:27:03;19.20;;;11.60;;
12910;SDS011;6523;49.758;6.120;2022-12-01T02:29:53;22.03;;;12.20;;
12910;SDS011;6523;49.758;6.120;2022-12-01T02:35:33;20.63;;;11.67;;
12910;SDS011;6523;49.758;6.120;2022-12-01T02:38:17;19.77;;;10.97;;
12910;SDS011;6523;49.758;6.120;2022-12-01T02:40:48;18.63;;;11.50;;
12910;SDS011;6523;49.758;6.120;2022-12-01T02:43:31;18.87;;;10.73;;
12910;SDS011;6523;49.758;6.120;2022-12-01T02:48:39;20.07;;;12.67;;
12910;SDS011;6523;49.758;6.120;2022-12-01T02:51:14;20.10;;;11.90;;
12910;SDS011;6523;49.758;6.120;2022-12-01T02:53:44;17.73;;;10.53;;
12910;SDS011;6523;49.758;6.120;2022-12-01T02:56:11;15.90;;;10.23;;
12910;SDS011;6523;49.758;6.120;2022-12-01T02:58:38;19.17;;;11.70;;
12910;SDS011;6523;49.758;6.120;2022-12-01T03:12:49;19.30;;;11.53;;
12910;SDS011;6523;49.758;6.120;2022-12-01T03:24:26;19.17;;;10.73;;
12910;SDS011;6523;49.758;6.120;2022-12-01T03:26:56;18.23;;;11.07;;
12910;SDS011;6523;49.758;6.120;2022-12-01T03:29:25;16.13;;;10.77;;
12910;SDS011;6523;49.758;6.120;2022-12-01T03:31:56;16.97;;;10.23;;
12910;SDS011;6523;49.758;6.120;2022-12-01T03:37:25;16.00;;;11.07;;
12910;SDS011;6523;49.758;6.120;2022-12-01T03:39:55;18.00;;;10.83;;
12910;SDS011;6523;49.758;6.120;2022-12-01T03:42:26;16.83;;;11.33;;
12910;SDS011;6523;49.758;6.120;2022-12-01T03:44:56;19.20;;;11.53;;
12910;SDS011;6523;49.758;6.120;2022-12-01T03:47:25;17.27;;;10.60;;
12910;SDS011;6523;49.758;6.120;2022-12-01T03:49:54;16.13;;;10.13;;
12910;SDS011;6523;49.758;6.120;2022-12-01T03:52:27;15.57;;;10.60;;
12910;SDS011;6523;49.758;6.120;2022-12-01T03:57:40;16.37;;;11.00;;
12910;SDS011;6523;49.758;6.120;2022-12-01T04:00:10;16.43;;;10.50;;
12910;SDS011;6523;49.758;6.120;2022-12-01T04:02:37;17.57;;;10.33;;
12910;SDS011;6523;49.758;6.120;2022-12-01T04:05:04;18.77;;;11.00;;
12910;SDS011;6523;49.758;6.120;2022-12-01T04:07:30;15.73;;;10.73;;
12910;SDS011;6523;49.758;6.120;2022-12-01T04:09:56;17.93;;;10.77;;
12910;SDS011;6523;49.758;6.120;2022-12-01T04:12:21;15.13;;;9.83;;
12910;SDS011;6523;49.758;6.120;2022-12-01T04:14:53;16.90;;;11.13;;
12910;SDS011;6523;49.758;6.120;2022-12-01T04:17:33;17.20;;;10.37;;
12910;SDS011;6523;49.758;6.120;2022-12-01T04:19:59;15.80;;;10.67;;
12910;SDS011;6523;49.758;6.120;2022-12-01T04:22:24;16.37;;;10.33;;
12910;SDS011;6523;49.758;6.120;2022-12-01T04:24:50;16.97;;;10.73;;
12910;SDS011;6523;49.758;6.120;2022-12-01T04:27:16;16.97;;;10.63;;
12910;SDS011;6523;49.758;6.120;2022-12-01T04:29:42;16.87;;;10.77;;
12910;SDS011;6523;49.758;6.120;2022-12-01T04:32:08;17.37;;;10.17;;
12910;SDS011;6523;49.758;6.120;2022-12-01T04:34:34;18.63;;;11.43;;
12910;SDS011;6523;49.758;6.120;2022-12-01T04:36:59;14.13;;;9.40;;
12910;SDS011;6523;49.758;6.120;2022-12-01T04:39:25;17.10;;;10.67;;
12910;SDS011;6523;49.758;6.120;2022-12-01T04:41:51;15.33;;;9.73;;
12910;SDS011;6523;49.758;6.120;2022-12-01T04:44:16;15.53;;;10.03;;
12910;SDS011;6523;49.758;6.120;2022-12-01T04:46:42;16.17;;;10.27;;
12910;SDS011;6523;49.758;6.120;2022-12-01T04:49:08;18.10;;;10.33;;
12910;SDS011;6523;49.758;6.120;2022-12-01T04:51:33;20.00;;;11.67;;
12910;SDS011;6523;49.758;6.120;2022-12-01T04:54:00;15.77;;;9.97;;
12910;SDS011;6523;49.758;6.120;2022-12-01T04:56:27;15.93;;;10.73;;
12910;SDS011;6523;49.758;6.120;2022-12-01T04:58:52;17.17;;;10.50;;
12910;SDS011;6523;49.758;6.120;2022-12-01T05:01:18;15.47;;;9.53;;
12910;SDS011;6523;49.758;6.120;2022-12-01T05:03:45;16.27;;;10.20;;
12910;SDS011;6523;49.758;6.120;2022-12-01T05:06:17;13.50;;;9.60;;
12910;SDS011;6523;49.758;6.120;2022-12-01T05:08:45;16.47;;;9.40;;
12910;SDS011;6523;49.758;6.120;2022-12-01T05:11:11;16.47;;;10.03;;
12910;SDS011;6523;49.758;6.120;2022-12-01T05:13:38;15.17;;;10.43;;
12910;SDS011;6523;49.758;6.120;2022-12-01T05:16:06;15.83;;;10.33;;
12910;SDS011;6523;49.758;6.120;2022-12-01T05:18:33;14.53;;;9.87;;
12910;SDS011;6523;49.758;6.120;2022-12-01T05:20:59;16.10;;;10.27;;
12910;SDS011;6523;49.758;6.120;2022-12-01T05:23:28;15.70;;;9.87;;
12910;SDS011;6523;49.758;6.120;2022-12-01T05:25:55;15.23;;;10.37;;
12910;SDS011;6523;49.758;6.120;2022-12-01T05:28:21;15.03;;;9.60;;
12910;SDS011;6523;49.758;6.120;2022-12-01T05:30:48;18.30;;;10.17;;
12910;SDS011;6523;49.758;6.120;2022-12-01T05:33:14;15.20;;;9.67;;
12910;SDS011;6523;49.758;6.120;2022-12-01T05:35:40;15.87;;;9.87;;
12910;SDS011;6523;49.758;6.120;2022-12-01T05:38:05;15.53;;;10.40;;
12910;SDS011;6523;49.758;6.120;2022-12-01T05:40:31;15.20;;;9.60;;
12910;SDS011;6523;49.758;6.120;2022-12-01T05:42:57;16.73;;;9.80;;
12910;SDS011;6523;49.758;6.120;2022-12-01T05:45:23;15.60;;;9.43;;
12910;SDS011;6523;49.758;6.120;2022-12-01T05:47:49;15.20;;;10.13;;
12910;SDS011;6523;49.758;6.120;2022-12-01T05:50:18;14.13;;;9.87;;
12910;SDS011;6523;49.758;6.120;2022-12-01T05:52:43;17.53;;;9.93;;
12910;SDS011;6523;49.758;6.120;2022-12-01T05:55:09;15.70;;;10.03;;
12910;SDS011;6523;49.758;6.120;2022-12-01T05:57:35;12.40;;;8.93;;
12910;SDS011;6523;49.758;6.120;2022-12-01T06:00:00;14.70;;;9.70;;
12910;SDS011;6523;49.758;6.120;2022-12-01T06:02:26;15.97;;;10.40;;
12910;SDS011;6523;49.758;6.120;2022-12-01T06:04:51;15.43;;;10.10;;
12910;SDS011;6523;49.758;6.120;2022-12-01T06:07:18;14.30;;;8.87;;
12910;SDS011;6523;49.758;6.120;2022-12-01T06:09:44;14.00;;;9.23;;
12910;SDS011;6523;49.758;6.120;2022-12-01T06:12:10;14.70;;;9.57;;
12910;SDS011;6523;49.758;6.120;2022-12-01T06:14:36;12.77;;;8.57;;
12910;SDS011;6523;49.758;6.120;2022-12-01T06:17:02;10.73;;;8.27;;
12910;SDS011;6523;49.758;6.120;2022-12-01T06:19:28;13.47;;;8.80;;
12910;SDS011;6523;49.758;6.120;2022-12-01T06:21:55;13.20;;;9.00;;
12910;SDS011;6523;49.758;6.120;2022-12-01T06:24:21;14.00;;;9.00;;
12910;SDS011;6523;49.758;6.120;2022-12-01T06:26:46;13.67;;;8.87;;
12910;SDS011;6523;49.758;6.120;2022-12-01T06:29:12;11.70;;;8.50;;
12910;SDS011;6523;49.758;6.120;2022-12-01T06:31:37;11.83;;;7.93;;
12910;SDS011;6523;49.758;6.120;2022-12-01T06:34:03;14.27;;;8.87;;
12910;SDS011;6523;49.758;6.120;2022-12-01T06:36:29;12.27;;;8.30;;
12910;SDS011;6523;49.758;6.120;2022-12-01T06:38:54;12.47;;;7.97;;
12910;SDS011;6523;49.758;6.120;2022-12-01T06:41:20;13.10;;;8.73;;
12910;SDS011;6523;49.758;6.120;2022-12-01T06:43:45;14.73;;;8.40;;
12910;SDS011;6523;49.758;6.120;2022-12-01T06:46:11;14.33;;;8.30;;
12910;SDS011;6523;49.758;6.120;2022-12-01T06:48:37;11.53;;;7.83;;
12910;SDS011;6523;49.758;6.120;2022-12-01T06:51:03;11.20;;;7.83;;
12910;SDS011;6523;49.758;6.120;2022-12-01T06:53:28;13.27;;;7.77;;
12910;SDS011;6523;49.758;6.120;2022-12-01T06:56:01;10.90;;;8.10;;
12910;SDS011;6523;49.758;6.120;2022-12-01T06:58:28;12.37;;;8.50;;
12910;SDS011;6523;49.758;6.120;2022-12-01T07:00:54;10.80;;;7.30;;
12910;SDS011;6523;49.758;6.120;2022-12-01T07:03:21;13.10;;;8.17;;
12910;SDS011;6523;49.758;6.120;2022-12-01T07:05:56;9.93;;;7.17;;
12910;SDS011;6523;49.758;6.120;2022-12-01T07:08:24;12.03;;;7.40;;
12910;SDS011;6523;49.758;6.120;2022-12-01T07:11:00;10.03;;;7.13;;
12910;SDS011;6523;49.758;6.120;2022-12-01T07:13:27;9.37;;;6.60;;
12910;SDS011;6523;49.758;6.120;2022-12-01T07:15:53;11.07;;;7.40;;
12910;SDS011;6523;49.758;6.120;2022-12-01T07:18:19;10.77;;;7.30;;
12910;SDS011;6523;49.758;6.120;2022-12-01T07:20:44;9.73;;;7.47;;
12910;SDS011;6523;49.758;6.120;2022-12-01T07:23:10;10.33;;;7.40;;
12910;SDS011;6523;49.758;6.120;2022-12-01T07:25:36;12.03;;;7.40;;
12910;SDS011;6523;49.758;6.120;2022-12-01T07:28:01;11.67;;;7.50;;
12910;SDS011;6523;49.758;6.120;2022-12-01T07:30:27;9.90;;;7.53;;
12910;SDS011;6523;49.758;6.120;2022-12-01T07:32:52;10.03;;;6.70;;
12910;SDS011;6523;49.758;6.120;2022-12-01T07:35:18;8.97;;;6.70;;
12910;SDS011;6523;49.758;6.120;2022-12-01T07:37:44;9.77;;;7.53;;
12910;SDS011;6523;49.758;6.120;2022-12-01T07:40:10;10.60;;;7.10;;
12910;SDS011;6523;49.758;6.120;2022-12-01T07:42:38;10.13;;;6.97;;
12910;SDS011;6523;49.758;6.120;2022-12-01T07:45:05;10.40;;;7.47;;
12910;SDS011;6523;49.758;6.120;2022-12-01T07:47:31;10.30;;;7.60;;
12910;SDS011;6523;49.758;6.120;2022-12-01T07:49:56;9.87;;;6.87;;
12910;SDS011;6523;49.758;6.120;2022-12-01T07:52:22;10.07;;;7.27;;
12910;SDS011;6523;49.758;6.120;2022-12-01T07:54:47;10.57;;;7.03;;
12910;SDS011;6523;49.758;6.120;2022-12-01T07:57:13;8.57;;;6.30;;
12910;SDS011;6523;49.758;6.120;2022-12-01T07:59:39;10.83;;;6.67;;
12910;SDS011;6523;49.758;6.120;2022-12-01T08:02:04;8.63;;;6.07;;
12910;SDS011;6523;49.758;6.120;2022-12-01T08:04:32;8.57;;;6.57;;
12910;SDS011;6523;49.758;6.120;2022-12-01T08:06:58;8.77;;;6.63;;
12910;SDS011;6523;49.758;6.120;2022-12-01T08:09:23;9.33;;;6.00;;
12910;SDS011;6523;49.758;6.120;2022-12-01T08:11:49;8.77;;;6.07;;
12910;SDS011;6523;49.758;6.120;2022-12-01T08:14:14;8.40;;;6.37;;
12910;SDS011;6523;49.758;6.120;2022-12-01T08:16:40;9.03;;;6.73;;
12910;SDS011;6523;49.758;6.120;2022-12-01T08:19:08;7.93;;;5.93;;
12910;SDS011;6523;49.758;6.120;2022-12-01T08:21:34;8.93;;;6.40;;
12910;SDS011;6523;49.758;6.120;2022-12-01T08:24:01;7.93;;;6.30;;
12910;SDS011;6523;49.758;6.120;2022-12-01T08:26:28;7.40;;;5.93;;
12910;SDS011;6523;49.758;6.120;2022-12-01T08:28:54;9.13;;;6.03;;
12910;SDS011;6523;49.758;6.120;2022-12-01T08:31:21;8.27;;;5.80;;
12910;SDS011;6523;49.758;6.120;2022-12-01T08:33:47;7.80;;;5.87;;
12910;SDS011;6523;49.758;6.120;2022-12-01T08:36:14;8.07;;;5.50;;
12910;SDS011;6523;49.758;6.120;2022-12-01T08:38:41;9.30;;;6.40;;
12910;SDS011;6523;49.758;6.120;2022-12-01T08:41:08;10.13;;;5.90;;
12910;SDS011;6523;49.758;6.120;2022-12-01T08:43:34;8.13;;;5.30;;
12910;SDS011;6523;49.758;6.120;2022-12-01T08:46:04;9.20;;;5.87;;
12910;SDS011;6523;49.758;6.120;2022-12-01T08:48:31;7.80;;;5.70;;
12910;SDS011;6523;49.758;6.120;2022-12-01T08:51:12;8.53;;;5.47;;
12910;SDS011;6523;49.758;6.120;2022-12-01T08:53:42;7.77;;;6.00;;
12910;SDS011;6523;49.758;6.120;2022-12-01T08:56:10;8.10;;;5.30;;
12910;SDS011;6523;49.758;6.120;2022-12-01T08:58:38;8.10;;;5.50;;
12910;SDS011;6523;49.758;6.120;2022-12-01T09:01:04;8.30;;;5.53;;
12910;SDS011;6523;49.758;6.120;2022-12-01T09:03:32;8.07;;;5.27;;
12910;SDS011;6523;49.758;6.120;2022-12-01T09:06:02;9.07;;;5.50;;
12910;SDS011;6523;49.758;6.120;2022-12-01T09:08:29;7.67;;;5.93;;
12910;SDS011;6523;49.758;6.120;2022-12-01T09:10:55;6.07;;;5.00;;
12910;SDS011;6523;49.758;6.120;2022-12-01T09:13:22;8.13;;;5.40;;
12910;SDS011;6523;49.758;6.120;2022-12-01T09:16:01;8.30;;;5.40;;
12910;SDS011;6523;49.758;6.120;2022-12-01T09:18:45;8.33;;;5.77;;
12910;SDS011;6523;49.758;6.120;2022-12-01T09:23:38;7.57;;;5.10;;
12910;SDS011;6523;49.758;6.120;2022-12-01T09:26:05;8.83;;;5.60;;
12910;SDS011;6523;49.758;6.120;2022-12-01T09:28:31;8.43;;;5.47;;
12910;SDS011;6523;49.758;6.120;2022-12-01T09:31:02;7.53;;;5.30;;
12910;SDS011;6523;49.758;6.120;2022-12-01T09:33:31;7.63;;;5.00;;
12910;SDS011;6523;49.758;6.120;2022-12-01T09:35:58;6.70;;;5.10;;
12910;SDS011;6523;49.758;6.120;2022-12-01T09:38:24;6.97;;;5.83;;
12910;SDS011;6523;49.758;6.120;2022-12-01T09:40:50;8.17;;;5.57;;
12910;SDS011;6523;49.758;6.120;2022-12-01T09:43:17;6.23;;;4.80;;
12910;SDS011;6523;49.758;6.120;2022-12-01T09:45:47;6.53;;;5.17;;
12910;SDS011;6523;49.758;6.120;2022-12-01T09:48:28;7.17;;;5.23;;
12910;SDS011;6523;49.758;6.120;2022-12-01T09:50:57;5.90;;;4.60;;
12910;SDS011;6523;49.758;6.120;2022-12-01T09:53:24;5.17;;;4.67;;
12910;SDS011;6523;49.758;6.120;2022-12-01T09:55:52;7.10;;;4.90;;
12910;SDS011;6523;49.758;6.120;2022-12-01T09:58:20;6.83;;;4.73;;
12910;SDS011;6523;49.758;6.120;2022-12-01T10:00:50;8.30;;;5.03;;
12910;SDS011;6523;49.758;6.120;2022-12-01T10:05:51;7.30;;;5.23;;
12910;SDS011;6523;49.758;6.120;2022-12-01T10:08:21;6.30;;;4.80;;
12910;SDS011;6523;49.758;6.120;2022-12-01T10:10:50;8.27;;;5.63;;
12910;SDS011;6523;49.758;6.120;2022-12-01T10:13:19;6.83;;;5.37;;
12910;SDS011;6523;49.758;6.120;2022-12-01T10:32:16;7.17;;;5.23;;
12910;SDS011;6523;49.758;6.120;2022-12-01T10:34:49;8.53;;;5.33;;
12910;SDS011;6523;49.758;6.120;2022-12-01T10:37:17;7.50;;;5.40;;
12910;SDS011;6523;49.758;6.120;2022-12-01T10:39:49;8.53;;;5.47;;
12910;SDS011;6523;49.758;6.120;2022-12-01T10:42:38;8.90;;;5.87;;
12910;SDS011;6523;49.758;6.120;2022-12-01T10:45:08;7.90;;;5.33;;
12910;SDS011;6523;49.758;6.120;2022-12-01T10:48:06;6.13;;;5.00;;
12910;SDS011;6523;49.758;6.120;2022-12-01T10:50:31;11.03;;;5.90;;
12910;SDS011;6523;49.758;6.120;2022-12-01T10:52:58;8.87;;;6.10;;
12910;SDS011;6523;49.758;6.120;2022-12-01T10:55:28;8.60;;;6.13;;
12910;SDS011;6523;49.758;6.120;2022-12-01T10:57:58;9.30;;;5.87;;
12910;SDS011;6523;49.758;6.120;2022-12-01T11:00:34;8.33;;;5.77;;
12910;SDS011;6523;49.758;6.120;2022-12-01T11:03:03;9.63;;;5.63;;
12910;SDS011;6523;49.758;6.120;2022-12-01T11:05:29;8.33;;;6.00;;
12910;SDS011;6523;49.758;6.120;2022-12-01T11:08:01;8.60;;;5.83;;
12910;SDS011;6523;49.758;6.120;2022-12-01T11:15:52;11.40;;;6.67;;
12910;SDS011;6523;49.758;6.120;2022-12-01T11:23:43;9.97;;;6.87;;
12910;SDS011;6523;49.758;6.120;2022-12-01T11:26:17;10.93;;;6.70;;
12910;SDS011;6523;49.758;6.120;2022-12-01T11:28:56;10.57;;;6.73;;
12910;SDS011;6523;49.758;6.120;2022-12-01T11:34:46;11.77;;;7.03;;
12910;SDS011;6523;49.758;6.120;2022-12-01T11:37:06;11.47;;;7.17;;
12910;SDS011;6523;49.758;6.120;2022-12-01T11:39:40;12.53;;;7.43;;
12910;SDS011;6523;49.758;6.120;2022-12-01T11:44:49;10.87;;;7.53;;
12910;SDS011;6523;49.758;6.120;2022-12-01T11:47:24;11.27;;;7.23;;
12910;SDS011;6523;49.758;6.120;2022-12-01T11:49:52;11.37;;;7.37;;
12910;SDS011;6523;49.758;6.120;2022-12-01T11:52:22;12.80;;;7.60;;
12910;SDS011;6523;49.758;6.120;2022-12-01T11:57:36;12.73;;;8.00;;
12910;SDS011;6523;49.758;6.120;2022-12-01T12:02:55;10.50;;;6.87;;
12910;SDS011;6523;49.758;6.120;2022-12-01T12:05:50;11.53;;;7.53;;
12910;SDS011;6523;49.758;6.120;2022-12-01T12:13:59;13.37;;;8.37;;
12910;SDS011;6523;49.758;6.120;2022-12-01T12:19:37;11.30;;;7.23;;
12910;SDS011;6523;49.758;6.120;2022-12-01T12:24:54;12.90;;;8.27;;
12910;SDS011;6523;49.758;6.120;2022-12-01T12:30:28;11.60;;;7.67;;
12910;SDS011;6523;49.758;6.120;2022-12-01T12:33:07;9.50;;;6.50;;
12910;SDS011;6523;49.758;6.120;2022-12-01T12:38:55;13.53;;;8.13;;
12910;SDS011;6523;49.758;6.120;2022-12-01T12:41:45;12.43;;;7.60;;
12910;SDS011;6523;49.758;6.120;2022-12-01T12:47:44;14.60;;;7.97;;
12910;SDS011;6523;49.758;6.120;2022-12-01T12:52:59;12.10;;;8.73;;
12910;SDS011;6523;49.758;6.120;2022-12-01T12:55:29;12.53;;;8.47;;
12910;SDS011;6523;49.758;6.120;2022-12-01T12:58:07;15.50;;;9.27;;
12910;SDS011;6523;49.758;6.120;2022-12-01T13:06:01;16.20;;;9.83;;
12910;SDS011;6523;49.758;6.120;2022-12-01T13:11:12;13.53;;;9.70;;
12910;SDS011;6523;49.758;6.120;2022-12-01T13:19:21;12.97;;;9.33;;
12910;SDS011;6523;49.758;6.120;2022-12-01T13:21:52;14.17;;;9.83;;
12910;SDS011;6523;49.758;6.120;2022-12-01T13:24:20;14.77;;;9.70;;
12910;SDS011;6523;49.758;6.120;2022-12-01T13:26:49;13.90;;;9.73;;
12910;SDS011;6523;49.758;6.120;2022-12-01T13:29:20;13.47;;;9.07;;
12910;SDS011;6523;49.758;6.120;2022-12-01T13:31:51;14.57;;;9.63;;
12910;SDS011;6523;49.758;6.120;2022-12-01T13:34:30;16.33;;;10.53;;
12910;SDS011;6523;49.758;6.120;2022-12-01T13:37:00;16.10;;;9.93;;
12910;SDS011;6523;49.758;6.120;2022-12-01T13:39:26;13.67;;;9.67;;
12910;SDS011;6523;49.758;6.120;2022-12-01T13:44:31;15.53;;;9.50;;
12910;SDS011;6523;49.758;6.120;2022-12-01T13:47:04;15.40;;;10.63;;
12910;SDS011;6523;49.758;6.120;2022-12-01T13:49:48;14.70;;;10.13;;
12910;SDS011;6523;49.758;6.120;2022-12-01T13:52:33;13.23;;;9.67;;
12910;SDS011;6523;49.758;6.120;2022-12-01T13:57:51;11.77;;;9.33;;
12910;SDS011;6523;49.758;6.120;2022-12-01T14:00:38;16.53;;;10.53;;
12910;SDS011;6523;49.758;6.120;2022-12-01T14:13:59;16.40;;;9.97;;
12910;SDS011;6523;49.758;6.120;2022-12-01T14:16:47;12.73;;;9.53;;
12910;SDS011;6523;49.758;6.120;2022-12-01T14:19:51;14.30;;;9.20;;
12910;SDS011;6523;49.758;6.120;2022-12-01T14:22:29;16.10;;;9.23;;
12910;SDS011;6523;49.758;6.120;2022-12-01T14:27:46;13.80;;;9.60;;
12910;SDS011;6523;49.758;6.120;2022-12-01T14:42:00;14.00;;;9.20;;
12910;SDS011;6523;49.758;6.120;2022-12-01T14:45:02;12.43;;;8.77;;
12910;SDS011;6523;49.758;6.120;2022-12-01T14:47:39;16.37;;;10.07;;
12910;SDS011;6523;49.758;6.120;2022-12-01T14:50:17;14.00;;;10.43;;
12910;SDS011;6523;49.758;6.120;2022-12-01T14:52:56;14.83;;;8.67;;
12910;SDS011;6523;49.758;6.120;2022-12-01T14:56:07;15.63;;;9.47;;
12910;SDS011;6523;49.758;6.120;2022-12-01T14:58:22;13.13;;;9.40;;
12910;SDS011;6523;49.758;6.120;2022-12-01T15:03:35;16.83;;;9.60;;
12910;SDS011;6523;49.758;6.120;2022-12-01T15:06:01;13.17;;;9.03;;
12910;SDS011;6523;49.758;6.120;2022-12-01T15:08:28;13.50;;;9.00;;
12910;SDS011;6523;49.758;6.120;2022-12-01T15:10:59;13.17;;;9.20;;
12910;SDS011;6523;49.758;6.120;2022-12-01T15:13:28;14.13;;;9.93;;
12910;SDS011;6523;49.758;6.120;2022-12-01T15:15:57;14.57;;;9.07;;
12910;SDS011;6523;49.758;6.120;2022-12-01T15:18:37;13.33;;;9.80;;
12910;SDS011;6523;49.758;6.120;2022-12-01T15:23:55;11.17;;;8.50;;
12910;SDS011;6523;49.758;6.120;2022-12-01T15:26:25;13.23;;;9.00;;
12910;SDS011;6523;49.758;6.120;2022-12-01T15:29:04;12.53;;;8.17;;
12910;SDS011;6523;49.758;6.120;2022-12-01T15:31:41;12.67;;;8.67;;
12910;SDS011;6523;49.758;6.120;2022-12-01T15:34:12;13.60;;;8.07;;
12910;SDS011;6523;49.758;6.120;2022-12-01T15:36:45;12.63;;;8.40;;
12910;SDS011;6523;49.758;6.120;2022-12-01T15:39:16;11.67;;;8.83;;
12910;SDS011;6523;49.758;6.120;2022-12-01T15:41:44;11.93;;;8.10;;
12910;SDS011;6523;49.758;6.120;2022-12-01T15:44:19;12.10;;;8.70;;
12910;SDS011;6523;49.758;6.120;2022-12-01T15:46:46;12.13;;;7.97;;
12910;SDS011;6523;49.758;6.120;2022-12-01T15:51:42;14.27;;;8.97;;
12910;SDS011;6523;49.758;6.120;2022-12-01T15:54:16;10.87;;;7.50;;
12910;SDS011;6523;49.758;6.120;2022-12-01T15:56:45;10.50;;;7.93;;
12910;SDS011;6523;49.758;6.120;2022-12-01T16:01:57;12.17;;;8.33;;
12910;SDS011;6523;49.758;6.120;2022-12-01T16:04:24;15.47;;;9.20;;
12910;SDS011;6523;49.758;6.120;2022-12-01T16:06:59;12.33;;;8.83;;
12910;SDS011;6523;49.758;6.120;2022-12-01T16:09:36;14.20;;;9.83;;
12910;SDS011;6523;49.758;6.120;2022-12-01T16:14:28;12.77;;;9.43;;
12910;SDS011;6523;49.758;6.120;2022-12-01T16:16:55;12.70;;;9.33;;
12910;SDS011;6523;49.758;6.120;2022-12-01T16:19:27;13.13;;;9.10;;
12910;SDS011;6523;49.758;6.120;2022-12-01T16:22:03;13.77;;;9.43;;
12910;SDS011;6523;49.758;6.120;2022-12-01T16:24:46;13.57;;;8.10;;
12910;SDS011;6523;49.758;6.120;2022-12-01T16:27:22;14.37;;;9.33;;
12910;SDS011;6523;49.758;6.120;2022-12-01T16:30:00;14.03;;;9.33;;
12910;SDS011;6523;49.758;6.120;2022-12-01T16:34:59;13.07;;;8.67;;
12910;SDS011;6523;49.758;6.120;2022-12-01T16:37:25;14.33;;;9.03;;
12910;SDS011;6523;49.758;6.120;2022-12-01T16:39:51;13.53;;;8.70;;
12910;SDS011;6523;49.758;6.120;2022-12-01T16:42:18;11.87;;;8.70;;
12910;SDS011;6523;49.758;6.120;2022-12-01T16:44:45;13.63;;;9.57;;
12910;SDS011;6523;49.758;6.120;2022-12-01T16:47:13;13.17;;;9.20;;
12910;SDS011;6523;49.758;6.120;2022-12-01T16:49:41;12.70;;;9.20;;
12910;SDS011;6523;49.758;6.120;2022-12-01T16:52:07;14.23;;;9.47;;
12910;SDS011;6523;49.758;6.120;2022-12-01T16:54:33;13.97;;;9.53;;
12910;SDS011;6523;49.758;6.120;2022-12-01T16:56:59;14.53;;;9.97;;
12910;SDS011;6523;49.758;6.120;2022-12-01T16:59:24;13.53;;;9.03;;
12910;SDS011;6523;49.758;6.120;2022-12-01T17:01:50;13.17;;;9.43;;
12910;SDS011;6523;49.758;6.120;2022-12-01T17:04:15;12.47;;;8.67;;
12910;SDS011;6523;49.758;6.120;2022-12-01T17:06:41;10.90;;;8.57;;
12910;SDS011;6523;49.758;6.120;2022-12-01T17:09:07;12.80;;;9.00;;
12910;SDS011;6523;49.758;6.120;2022-12-01T17:11:33;11.30;;;8.33;;
12910;SDS011;6523;49.758;6.120;2022-12-01T17:13:59;13.23;;;9.50;;
12910;SDS011;6523;49.758;6.120;2022-12-01T17:16:24;11.30;;;8.50;;
12910;SDS011;6523;49.758;6.120;2022-12-01T17:18:50;11.47;;;8.60;;
12910;SDS011;6523;49.758;6.120;2022-12-01T17:21:15;12.90;;;9.00;;
12910;SDS011;6523;49.758;6.120;2022-12-01T17:23:41;9.37;;;8.03;;
12910;SDS011;6523;49.758;6.120;2022-12-01T17:26:11;13.23;;;9.23;;
12910;SDS011;6523;49.758;6.120;2022-12-01T17:28:41;9.87;;;8.17;;
12910;SDS011;6523;49.758;6.120;2022-12-01T17:31:07;11.27;;;8.47;;
12910;SDS011;6523;49.758;6.120;2022-12-01T17:33:33;13.93;;;8.87;;
12910;SDS011;6523;49.758;6.120;2022-12-01T17:36:04;11.40;;;8.63;;
12910;SDS011;6523;49.758;6.120;2022-12-01T17:38:35;11.00;;;8.33;;
12910;SDS011;6523;49.758;6.120;2022-12-01T17:41:06;12.57;;;9.03;;
12910;SDS011;6523;49.758;6.120;2022-12-01T17:43:33;13.93;;;9.93;;
12910;SDS011;6523;49.758;6.120;2022-12-01T17:45:59;13.93;;;8.97;;